Time;durP1;ratioP1;P1;durP2;ratioP2;P2;SDS_P1;SDS_P2;PMS_P1;PMS_P2;Temp;Humidity;BMP_temperature;BMP_pressure;BME280_temperature;BME280_humidity;BME280_pressure;Samples;Min_cycle;Max_cycle;Signal;HPM_P1;HPM_P2
2022/02/19 00:01:42;;;;;;;11.70;1.90;;;;;;;;;;5019833;28;20128;-68
2022/02/19 00:04:08;;;;;;;8.90;1.97;;;;;;;;;;5017805;28;20430;-68
2022/02/19 00:06:34;;;;;;;9.17;2.20;;;;;;;;;;5021616;28;20258;-68
2022/02/19 00:09:00;;;;;;;9.63;1.43;;;;;;;;;;5015275;28;20525;-68
2022/02/19 00:11:25;;;;;;;7.17;2.10;;;;;;;;;;5021511;28;20124;-68
2022/02/19 00:13:51;;;;;;;7.40;1.57;;;;;;;;;;5012095;28;20037;-68
2022/02/19 00:16:16;;;;;;;10.63;1.90;;;;;;;;;;5018285;28;20485;-68
2022/02/19 00:18:41;;;;;;;12.30;2.30;;;;;;;;;;5019275;28;20037;-68
2022/02/19 00:21:07;;;;;;;11.70;1.90;;;;;;;;;;5021290;28;20033;-68
2022/02/19 00:23:32;;;;;;;9.17;1.30;;;;;;;;;;5015158;28;20099;-68
2022/02/19 00:25:57;;;;;;;4.47;1.30;;;;;;;;;;5021452;28;20051;-68
2022/02/19 00:28:23;;;;;;;5.13;1.20;;;;;;;;;;5016164;28;20528;-68
2022/02/19 00:30:49;;;;;;;6.77;1.53;;;;;;;;;;5017411;28;20083;-68
2022/02/19 00:33:14;;;;;;;8.47;1.67;;;;;;;;;;5017120;28;20037;-68
2022/02/19 00:35:40;;;;;;;5.63;1.33;;;;;;;;;;5017950;28;20629;-68
2022/02/19 00:38:05;;;;;;;14.13;1.47;;;;;;;;;;5018281;28;20086;-68
2022/02/19 00:40:31;;;;;;;5.93;1.80;;;;;;;;;;5019976;28;20037;-69
2022/02/19 00:42:56;;;;;;;9.53;1.77;;;;;;;;;;5017367;28;20185;-68
2022/02/19 00:45:21;;;;;;;8.33;1.47;;;;;;;;;;5019051;28;20193;-68
2022/02/19 00:47:46;;;;;;;8.07;1.53;;;;;;;;;;5018758;28;20278;-68
2022/02/19 00:50:13;;;;;;;5.60;1.07;;;;;;;;;;5021068;28;20370;-68
2022/02/19 00:52:38;;;;;;;11.20;1.40;;;;;;;;;;5017501;28;20040;-68
2022/02/19 00:55:04;;;;;;;6.33;1.50;;;;;;;;;;5017692;28;20029;-68
2022/02/19 00:57:29;;;;;;;7.13;1.53;;;;;;;;;;5018518;28;20168;-68
2022/02/19 00:59:54;;;;;;;8.93;1.33;;;;;;;;;;5011185;28;20524;-68
2022/02/19 01:02:19;;;;;;;12.00;1.50;;;;;;;;;;5019584;28;20021;-68
2022/02/19 01:04:45;;;;;;;6.10;0.83;;;;;;;;;;5009877;28;20301;-68
2022/02/19 01:07:10;;;;;;;8.77;1.63;;;;;;;;;;5020590;28;20305;-68
2022/02/19 01:09:35;;;;;;;13.30;2.10;;;;;;;;;;5010517;28;20029;-68
2022/02/19 01:12:00;;;;;;;8.23;1.77;;;;;;;;;;5020234;28;20025;-68
2022/02/19 01:14:26;;;;;;;5.87;1.40;;;;;;;;;;5010750;28;20033;-68
2022/02/19 01:16:51;;;;;;;9.33;1.10;;;;;;;;;;5020744;28;20115;-67
2022/02/19 01:19:16;;;;;;;9.40;1.43;;;;;;;;;;5011923;28;20126;-68
2022/02/19 01:21:41;;;;;;;9.63;1.47;;;;;;;;;;5020796;28;20493;-68
2022/02/19 01:24:07;;;;;;;5.30;1.53;;;;;;;;;;5013779;28;20014;-68
2022/02/19 01:26:33;;;;;;;5.87;1.80;;;;;;;;;;5020516;28;20036;-68
2022/02/19 01:28:58;;;;;;;8.20;1.90;;;;;;;;;;5014993;28;20029;-68
2022/02/19 01:31:24;;;;;;;11.13;2.13;;;;;;;;;;5020110;28;20029;-68
2022/02/19 01:33:50;;;;;;;6.60;1.80;;;;;;;;;;5015166;28;20413;-68
2022/02/19 01:36:15;;;;;;;5.23;1.30;;;;;;;;;;5019403;28;20040;-67
2022/02/19 01:38:40;;;;;;;8.90;1.50;;;;;;;;;;5018219;28;20117;-67
2022/02/19 01:41:06;;;;;;;13.37;1.63;;;;;;;;;;5020233;28;20060;-68
2022/02/19 01:43:31;;;;;;;5.87;1.33;;;;;;;;;;5019070;28;20441;-68
2022/02/19 01:45:56;;;;;;;4.00;1.17;;;;;;;;;;5019477;28;20029;-68
2022/02/19 01:48:21;;;;;;;8.40;1.90;;;;;;;;;;5010486;28;20080;-68
2022/02/19 01:50:47;;;;;;;4.93;1.67;;;;;;;;;;5016535;28;20038;-68
2022/02/19 01:53:12;;;;;;;5.03;1.30;;;;;;;;;;5011530;28;20033;-67
2022/02/19 01:55:38;;;;;;;12.47;2.23;;;;;;;;;;5016105;28;20305;-68
2022/02/19 01:58:05;;;;;;;9.20;1.83;;;;;;;;;;5013685;28;20061;-68
2022/02/19 02:00:30;;;;;;;7.70;1.50;;;;;;;;;;5020145;28;20486;-68
2022/02/19 02:03:00;;;;;;;10.20;1.90;;;;;;;;;;5015182;28;20101;-67
2022/02/19 02:05:25;;;;;;;12.63;2.10;;;;;;;;;;5044745;23;20086;-74
2022/02/19 02:07:50;;;;;;;4.73;1.70;;;;;;;;;;5044143;28;20056;-74
2022/02/19 02:10:16;;;;;;;3.40;1.30;;;;;;;;;;5036226;28;20037;-74
2022/02/19 02:12:41;;;;;;;3.10;1.20;;;;;;;;;;5040079;28;20358;-74
2022/02/19 02:15:26;;;;;;;11.70;2.20;;;;;;;;;;5045248;28;20088;-74
2022/02/19 02:17:51;;;;;;;10.80;2.30;;;;;;;;;;5040021;28;20055;-74
2022/02/19 02:20:17;;;;;;;7.13;1.67;;;;;;;;;;5030736;28;20060;-74
2022/02/19 02:22:42;;;;;;;11.27;1.93;;;;;;;;;;5028340;28;20477;-75
2022/02/19 02:25:10;;;;;;;5.17;1.83;;;;;;;;;;5041619;28;20041;-75
2022/02/19 02:27:36;;;;;;;7.33;1.80;;;;;;;;;;5044557;28;20518;-74
2022/02/19 02:30:02;;;;;;;12.33;1.97;;;;;;;;;;5041174;28;20059;-76
2022/02/19 02:32:27;;;;;;;7.97;2.13;;;;;;;;;;5037848;28;20022;-75
2022/02/19 02:34:56;;;;;;;9.67;2.03;;;;;;;;;;5036482;28;20035;-76
2022/02/19 02:37:21;;;;;;;8.27;1.83;;;;;;;;;;5040709;28;20025;-77
2022/02/19 02:39:48;;;;;;;13.70;2.07;;;;;;;;;;5044002;28;20020;-77
2022/02/19 02:42:14;;;;;;;5.17;1.67;;;;;;;;;;5041484;28;20055;-77
2022/02/19 02:44:40;;;;;;;4.93;1.33;;;;;;;;;;5039391;28;20393;-76
2022/02/19 02:47:07;;;;;;;5.83;2.30;;;;;;;;;;5041029;28;20020;-75
2022/02/19 02:49:32;;;;;;;13.43;2.30;;;;;;;;;;5035521;28;20017;-76
2022/02/19 02:51:57;;;;;;;6.47;1.80;;;;;;;;;;5033184;28;20374;-76
2022/02/19 02:54:22;;;;;;;3.83;1.63;;;;;;;;;;5033931;28;20099;-76
2022/02/19 02:56:48;;;;;;;3.63;1.40;;;;;;;;;;5038187;28;20189;-76
2022/02/19 02:59:13;;;;;;;5.80;1.77;;;;;;;;;;5039558;28;20031;-75
2022/02/19 03:01:38;;;;;;;6.97;2.07;;;;;;;;;;5031040;28;20253;-74
2022/02/19 03:04:04;;;;;;;5.43;1.90;;;;;;;;;;5031892;28;20521;-76
2022/02/19 03:06:29;;;;;;;9.37;2.33;;;;;;;;;;5028566;28;20032;-75
2022/02/19 03:08:54;;;;;;;4.97;1.67;;;;;;;;;;5028279;28;20021;-74
2022/02/19 03:11:19;;;;;;;6.63;1.60;;;;;;;;;;5029515;28;20265;-75
2022/02/19 03:13:45;;;;;;;8.53;1.93;;;;;;;;;;5023269;28;20436;-72
2022/02/19 03:16:10;;;;;;;3.50;1.20;;;;;;;;;;5026279;28;20025;-74
2022/02/19 03:18:35;;;;;;;7.37;1.33;;;;;;;;;;5032058;28;20076;-74
2022/02/19 03:21:00;;;;;;;3.63;1.57;;;;;;;;;;5025153;28;20037;-73
2022/02/19 03:23:26;;;;;;;3.17;1.43;;;;;;;;;;5032700;28;20481;-73
2022/02/19 03:25:51;;;;;;;3.20;1.27;;;;;;;;;;5032045;28;20021;-73
2022/02/19 03:28:16;;;;;;;4.90;1.33;;;;;;;;;;5036704;28;20217;-74
2022/02/19 03:30:41;;;;;;;2.53;1.00;;;;;;;;;;5025576;28;20029;-74
2022/02/19 03:33:07;;;;;;;10.27;1.50;;;;;;;;;;5031445;28;20274;-74
2022/02/19 03:35:32;;;;;;;5.77;1.90;;;;;;;;;;5029724;28;20021;-74
2022/02/19 03:37:57;;;;;;;2.63;1.20;;;;;;;;;;5028110;28;20021;-74
2022/02/19 03:40:22;;;;;;;5.00;1.20;;;;;;;;;;5027824;28;20022;-73
2022/02/19 03:42:48;;;;;;;5.33;1.40;;;;;;;;;;5031538;28;20041;-74
2022/02/19 03:45:13;;;;;;;5.20;1.40;;;;;;;;;;5028504;28;20505;-73
2022/02/19 03:47:41;;;;;;;5.03;1.53;;;;;;;;;;5034917;28;20020;-74
2022/02/19 03:50:07;;;;;;;6.37;1.40;;;;;;;;;;5035140;28;20377;-73
2022/02/19 03:52:37;;;;;;;5.37;1.30;;;;;;;;;;5032196;28;20029;-74
2022/02/19 03:55:02;;;;;;;1.17;0.80;;;;;;;;;;5022654;28;20526;-75
2022/02/19 03:57:28;;;;;;;10.30;1.50;;;;;;;;;;5030808;28;20108;-74
2022/02/19 03:59:53;;;;;;;5.60;1.10;;;;;;;;;;5038583;28;20079;-74
2022/02/19 04:02:18;;;;;;;3.97;0.97;;;;;;;;;;5033822;28;20032;-74
2022/02/19 04:04:44;;;;;;;3.30;1.30;;;;;;;;;;5040540;28;20053;-73
2022/02/19 04:07:09;;;;;;;1.37;0.90;;;;;;;;;;5027482;28;20030;-74
2022/02/19 04:09:34;;;;;;;1.30;1.00;;;;;;;;;;5038936;28;20112;-74
2022/02/19 04:12:00;;;;;;;3.20;1.20;;;;;;;;;;5038786;28;20358;-74
2022/02/19 04:14:25;;;;;;;4.67;1.10;;;;;;;;;;5032649;28;20060;-74
2022/02/19 04:16:50;;;;;;;3.43;1.33;;;;;;;;;;5026378;28;20037;-74
2022/02/19 04:19:15;;;;;;;1.93;1.07;;;;;;;;;;5028059;28;20060;-73
2022/02/19 04:21:41;;;;;;;3.83;1.43;;;;;;;;;;5036608;28;20604;-77
2022/02/19 04:24:06;;;;;;;2.80;1.33;;;;;;;;;;5035806;28;20029;-76
2022/02/19 04:26:32;;;;;;;4.87;1.03;;;;;;;;;;5038375;28;20029;-77
2022/02/19 04:28:57;;;;;;;5.80;1.67;;;;;;;;;;5038929;28;20021;-74
2022/02/19 04:31:23;;;;;;;5.07;1.20;;;;;;;;;;5027185;28;20021;-75
2022/02/19 04:33:48;;;;;;;3.07;1.20;;;;;;;;;;5038779;28;20040;-74
2022/02/19 04:36:14;;;;;;;3.97;2.07;;;;;;;;;;5036546;28;20044;-75
2022/02/19 04:38:39;;;;;;;3.03;1.87;;;;;;;;;;5026674;28;20433;-73
2022/02/19 04:41:04;;;;;;;4.30;1.20;;;;;;;;;;5027630;28;20267;-76
2022/02/19 04:43:29;;;;;;;4.17;1.20;;;;;;;;;;5031645;28;20037;-76
2022/02/19 04:45:55;;;;;;;2.57;1.00;;;;;;;;;;5021932;28;20047;-76
2022/02/19 04:48:20;;;;;;;1.67;0.97;;;;;;;;;;5031838;28;20669;-78
2022/02/19 04:50:45;;;;;;;4.03;1.10;;;;;;;;;;5040580;28;20528;-74
2022/02/19 04:53:10;;;;;;;3.80;1.63;;;;;;;;;;5041895;28;20144;-75
2022/02/19 04:55:36;;;;;;;3.37;1.47;;;;;;;;;;5041199;28;20056;-75
2022/02/19 04:58:02;;;;;;;1.83;1.10;;;;;;;;;;5043104;28;20818;-75
2022/02/19 05:00:27;;;;;;;3.30;1.07;;;;;;;;;;5036189;28;20025;-75
2022/02/19 05:02:53;;;;;;;4.53;2.00;;;;;;;;;;5039649;28;20505;-77
2022/02/19 05:05:18;;;;;;;2.23;1.17;;;;;;;;;;5026793;28;20050;-75
2022/02/19 05:07:44;;;;;;;4.67;2.10;;;;;;;;;;5038964;28;20088;-75
2022/02/19 05:10:09;;;;;;;2.60;1.57;;;;;;;;;;5041200;28;20017;-75
2022/02/19 05:12:40;;;;;;;3.70;1.17;;;;;;;;;;5028035;28;20025;-75
2022/02/19 05:15:07;;;;;;;2.97;1.10;;;;;;;;;;5037903;28;20108;-75
2022/02/19 05:17:32;;;;;;;1.37;0.83;;;;;;;;;;5042624;28;20037;-75
2022/02/19 05:19:57;;;;;;;2.20;1.10;;;;;;;;;;5037920;28;20226;-75
2022/02/19 05:22:22;;;;;;;4.70;1.10;;;;;;;;;;5040194;28;20032;-75
2022/02/19 05:24:47;;;;;;;3.70;1.10;;;;;;;;;;5044911;28;20025;-75
2022/02/19 05:27:13;;;;;;;3.00;1.10;;;;;;;;;;5037731;28;20021;-75
2022/02/19 05:29:39;;;;;;;3.40;1.10;;;;;;;;;;5029003;28;20021;-76
2022/02/19 05:32:05;;;;;;;3.20;1.20;;;;;;;;;;5044003;28;20017;-75
2022/02/19 05:34:30;;;;;;;5.13;1.43;;;;;;;;;;5043322;28;20445;-75
2022/02/19 05:36:55;;;;;;;3.30;1.30;;;;;;;;;;5043132;28;20051;-75
2022/02/19 05:39:20;;;;;;;2.47;1.27;;;;;;;;;;5030527;28;20029;-77
2022/02/19 05:41:47;;;;;;;6.13;1.40;;;;;;;;;;5043539;28;20055;-76
2022/02/19 05:44:12;;;;;;;3.50;1.10;;;;;;;;;;5043763;28;20029;-79
2022/02/19 05:46:38;;;;;;;4.20;1.93;;;;;;;;;;5043729;28;20409;-77
2022/02/19 05:49:04;;;;;;;3.37;1.67;;;;;;;;;;5039351;28;20243;-78
2022/02/19 05:51:29;;;;;;;2.40;1.43;;;;;;;;;;5032008;28;20063;-77
2022/02/19 05:53:55;;;;;;;7.13;0.97;;;;;;;;;;5029002;28;20214;-77
2022/02/19 05:56:20;;;;;;;2.37;1.00;;;;;;;;;;5038194;28;20071;-76
2022/02/19 05:58:45;;;;;;;2.53;1.10;;;;;;;;;;5036841;28;20126;-76
2022/02/19 06:01:11;;;;;;;2.47;1.30;;;;;;;;;;5032279;28;20017;-75
2022/02/19 06:03:36;;;;;;;2.30;0.97;;;;;;;;;;5032601;28;20045;-74
2022/02/19 06:06:02;;;;;;;1.77;1.00;;;;;;;;;;5034524;28;20192;-74
2022/02/19 06:08:27;;;;;;;5.10;1.20;;;;;;;;;;5030003;28;20018;-73
2022/02/19 06:10:52;;;;;;;2.00;0.93;;;;;;;;;;5036959;28;20444;-73
2022/02/19 06:13:17;;;;;;;1.80;0.90;;;;;;;;;;5031683;28;20075;-73
2022/02/19 06:15:43;;;;;;;3.27;0.97;;;;;;;;;;5028397;28;20270;-72
2022/02/19 06:18:08;;;;;;;4.03;1.07;;;;;;;;;;5032648;28;20116;-73
2022/02/19 06:20:33;;;;;;;3.70;1.20;;;;;;;;;;5032703;28;20108;-73
2022/02/19 06:23:00;;;;;;;2.83;1.03;;;;;;;;;;5032364;28;20370;-73
2022/02/19 06:25:25;;;;;;;5.23;1.60;;;;;;;;;;5025960;28;20041;-73
2022/02/19 06:27:50;;;;;;;5.27;2.20;;;;;;;;;;5030773;28;20297;-72
2022/02/19 06:30:15;;;;;;;2.80;1.23;;;;;;;;;;5039054;28;20503;-73
2022/02/19 06:32:41;;;;;;;5.77;1.90;;;;;;;;;;5028144;28;20825;-74
2022/02/19 06:35:07;;;;;;;3.60;1.23;;;;;;;;;;5029844;28;20025;-72
2022/02/19 06:37:42;;;;;;;7.13;2.40;;;;;;;;;;5037393;28;20025;-73
2022/02/19 06:40:09;;;;;;;14.60;1.60;;;;;;;;;;5029814;28;20021;-73
2022/02/19 06:42:34;;;;;;;4.67;1.73;;;;;;;;;;5028074;28;20027;-72
2022/02/19 06:45:00;;;;;;;7.93;1.37;;;;;;;;;;5025041;28;20528;-72
2022/02/19 06:47:25;;;;;;;16.67;2.13;;;;;;;;;;5036106;28;20156;-73
2022/02/19 06:49:50;;;;;;;8.73;1.70;;;;;;;;;;5025794;28;20025;-72
2022/02/19 06:52:16;;;;;;;16.53;2.37;;;;;;;;;;5036043;28;20354;-72
2022/02/19 06:54:41;;;;;;;7.17;1.30;;;;;;;;;;5030856;28;20310;-71
2022/02/19 06:57:13;;;;;;;3.20;1.23;;;;;;;;;;5036029;28;20021;-73
2022/02/19 06:59:38;;;;;;;8.27;1.40;;;;;;;;;;5027346;28;20124;-73
2022/02/19 07:02:04;;;;;;;8.97;1.20;;;;;;;;;;5026435;28;20164;-72
2022/02/19 07:04:29;;;;;;;8.63;2.17;;;;;;;;;;5028167;28;20052;-72
2022/02/19 07:06:54;;;;;;;8.83;1.57;;;;;;;;;;5026509;28;20021;-72
2022/02/19 07:09:19;;;;;;;6.10;1.20;;;;;;;;;;5028558;28;20099;-72
2022/02/19 07:11:45;;;;;;;6.57;1.57;;;;;;;;;;5030302;28;20033;-72
2022/02/19 07:14:10;;;;;;;6.70;1.47;;;;;;;;;;5027770;28;20145;-71
2022/02/19 07:16:35;;;;;;;6.67;1.00;;;;;;;;;;5033243;28;20524;-71
2022/02/19 07:19:01;;;;;;;4.57;0.97;;;;;;;;;;5030336;28;20017;-72
2022/02/19 07:21:26;;;;;;;4.33;1.80;;;;;;;;;;5033726;28;20041;-71
2022/02/19 07:23:51;;;;;;;4.07;1.50;;;;;;;;;;5032729;28;20068;-72
2022/02/19 07:26:18;;;;;;;11.30;1.90;;;;;;;;;;5032382;28;20561;-71
2022/02/19 07:28:43;;;;;;;3.40;1.20;;;;;;;;;;5034091;28;20498;-71
2022/02/19 07:31:08;;;;;;;8.90;2.10;;;;;;;;;;5029847;28;20021;-72
2022/02/19 07:33:34;;;;;;;8.53;2.60;;;;;;;;;;5033528;28;20025;-71
2022/02/19 07:35:59;;;;;;;6.50;2.10;;;;;;;;;;5037322;28;20020;-71
2022/02/19 07:38:24;;;;;;;7.63;1.00;;;;;;;;;;5024781;28;20072;-71
2022/02/19 07:40:49;;;;;;;3.80;1.20;;;;;;;;;;5034018;28;20110;-71
2022/02/19 07:43:15;;;;;;;4.93;1.60;;;;;;;;;;5035603;28;20219;-72
2022/02/19 07:45:40;;;;;;;4.50;1.27;;;;;;;;;;5033483;28;20040;-72
2022/02/19 07:48:05;;;;;;;10.13;1.60;;;;;;;;;;5036056;28;20276;-71
2022/02/19 07:58:43;;;;;;;6.50;1.27;;;;;;;;;;5023294;28;20118;-72
2022/02/19 08:01:08;;;;;;;3.47;1.03;;;;;;;;;;5033616;28;20604;-71
2022/02/19 08:03:34;;;;;;;3.10;0.90;;;;;;;;;;5030696;28;20048;-71
2022/02/19 08:06:00;;;;;;;7.37;1.03;;;;;;;;;;5020394;28;20094;-71
2022/02/19 08:08:25;;;;;;;10.27;2.00;;;;;;;;;;5030646;28;20013;-73
2022/02/19 08:10:51;;;;;;;5.20;1.03;;;;;;;;;;5025943;28;20041;-73
2022/02/19 08:13:17;;;;;;;5.60;1.53;;;;;;;;;;5024934;28;20637;-72
2022/02/19 08:15:43;;;;;;;5.40;1.03;;;;;;;;;;5022841;28;20053;-71
2022/02/19 08:18:09;;;;;;;4.17;1.20;;;;;;;;;;5030861;28;20141;-72
2022/02/19 08:20:35;;;;;;;6.83;1.10;;;;;;;;;;5028136;28;20140;-72
2022/02/19 08:23:01;;;;;;;7.40;1.67;;;;;;;;;;5029220;28;20636;-72
2022/02/19 08:25:26;;;;;;;1.43;0.80;;;;;;;;;;5036801;28;20024;-73
2022/02/19 08:27:52;;;;;;;3.03;1.30;;;;;;;;;;5031972;28;20106;-71
2022/02/19 08:30:17;;;;;;;4.93;1.20;;;;;;;;;;5033013;28;20028;-71
2022/02/19 08:32:42;;;;;;;8.43;2.13;;;;;;;;;;5036272;28;20169;-71
2022/02/19 08:35:08;;;;;;;7.47;1.43;;;;;;;;;;5032857;28;20025;-72
2022/02/19 08:37:33;;;;;;;6.97;1.30;;;;;;;;;;5035287;28;20579;-73
2022/02/19 08:39:58;;;;;;;2.80;1.10;;;;;;;;;;5035795;28;20033;-72
2022/02/19 08:42:24;;;;;;;11.13;1.20;;;;;;;;;;5033227;28;20527;-72
2022/02/19 08:44:49;;;;;;;5.87;1.13;;;;;;;;;;5030696;28;20220;-71
2022/02/19 08:47:14;;;;;;;4.43;1.23;;;;;;;;;;5038900;28;20575;-71
2022/02/19 08:49:39;;;;;;;5.87;1.23;;;;;;;;;;5038305;28;20447;-72
2022/02/19 08:52:05;;;;;;;6.17;1.37;;;;;;;;;;5035792;28;20056;-73
2022/02/19 08:54:30;;;;;;;4.00;0.80;;;;;;;;;;5028279;28;20025;-72
2022/02/19 08:56:55;;;;;;;5.93;1.27;;;;;;;;;;5036150;28;20107;-72
2022/02/19 08:59:21;;;;;;;6.80;2.00;;;;;;;;;;5039818;28;20756;-72
2022/02/19 09:01:47;;;;;;;7.30;2.30;;;;;;;;;;5035954;28;20075;-71
2022/02/19 09:04:12;;;;;;;5.87;1.47;;;;;;;;;;5023054;28;20393;-73
2022/02/19 09:06:37;;;;;;;8.60;1.37;;;;;;;;;;5019404;28;20029;-72
2022/02/19 09:09:04;;;;;;;8.53;1.37;;;;;;;;;;5024049;28;20021;-71
2022/02/19 09:11:30;;;;;;;8.70;1.23;;;;;;;;;;5036972;28;20029;-71
2022/02/19 09:13:55;;;;;;;10.03;1.37;;;;;;;;;;5033602;28;20194;-71
2022/02/19 09:16:21;;;;;;;9.73;1.73;;;;;;;;;;5020675;28;20033;-71
2022/02/19 09:18:46;;;;;;;8.10;1.63;;;;;;;;;;5030251;28;20234;-72
2022/02/19 09:21:12;;;;;;;3.93;0.73;;;;;;;;;;5031052;28;20025;-72
2022/02/19 09:23:37;;;;;;;9.13;1.20;;;;;;;;;;5035687;28;20025;-72
2022/02/19 09:26:03;;;;;;;2.93;1.03;;;;;;;;;;5040351;28;20502;-72
2022/02/19 09:28:28;;;;;;;9.03;2.17;;;;;;;;;;5032458;28;20072;-72
2022/02/19 09:30:53;;;;;;;12.60;1.93;;;;;;;;;;5036011;28;20025;-71
2022/02/19 09:33:18;;;;;;;14.97;1.70;;;;;;;;;;5035605;28;20472;-71
2022/02/19 09:35:44;;;;;;;6.47;1.87;;;;;;;;;;5033107;28;20430;-72
2022/02/19 09:38:09;;;;;;;7.93;2.00;;;;;;;;;;5021654;28;20400;-72
2022/02/19 09:40:34;;;;;;;4.37;1.13;;;;;;;;;;5020113;28;20104;-73
2022/02/19 09:42:59;;;;;;;6.43;2.00;;;;;;;;;;5020539;28;20033;-72
2022/02/19 09:45:29;;;;;;;12.43;2.07;;;;;;;;;;5020617;28;20044;-72
2022/02/19 09:47:55;;;;;;;8.87;1.47;;;;;;;;;;5025674;28;20195;-72
2022/02/19 09:50:21;;;;;;;8.67;1.60;;;;;;;;;;5034766;28;20048;-72
2022/02/19 09:52:47;;;;;;;6.07;1.00;;;;;;;;;;5024431;28;20300;-72
2022/02/19 09:55:12;;;;;;;3.30;1.03;;;;;;;;;;5030368;28;20116;-72
2022/02/19 09:57:37;;;;;;;4.97;1.20;;;;;;;;;;5031486;28;20025;-72
2022/02/19 10:00:03;;;;;;;6.13;1.33;;;;;;;;;;5023705;28;20021;-72
2022/02/19 10:02:30;;;;;;;7.30;2.00;;;;;;;;;;5033961;28;20029;-72
2022/02/19 10:05:08;;;;;;;7.53;2.30;;;;;;;;;;5026418;28;20514;-73
2022/02/19 10:07:35;;;;;;;6.67;1.80;;;;;;;;;;5022229;28;20151;-72
2022/02/19 10:10:01;;;;;;;9.37;1.40;;;;;;;;;;5026160;28;20079;-72
2022/02/19 10:12:42;;;;;;;6.40;1.97;;;;;;;;;;5024761;28;20067;-72
2022/02/19 10:15:08;;;;;;;10.00;2.00;;;;;;;;;;5023538;28;20037;-73
2022/02/19 10:17:37;;;;;;;8.60;1.70;;;;;;;;;;5038102;28;20260;-73
2022/02/19 10:20:06;;;;;;;5.03;1.50;;;;;;;;;;5022420;28;20026;-73
2022/02/19 10:22:33;;;;;;;8.57;1.63;;;;;;;;;;5021621;28;20060;-73
2022/02/19 10:25:03;;;;;;;8.57;2.17;;;;;;;;;;5021913;28;20027;-73
2022/02/19 10:27:49;;;;;;;7.67;1.33;;;;;;;;;;5023925;28;20029;-73
2022/02/19 10:30:16;;;;;;;6.30;1.13;;;;;;;;;;5022921;28;20079;-73
2022/02/19 10:32:46;;;;;;;11.27;1.40;;;;;;;;;;5029033;28;20176;-73
2022/02/19 10:35:11;;;;;;;12.27;1.57;;;;;;;;;;5023530;28;20468;-73
2022/02/19 10:37:42;;;;;;;8.80;1.40;;;;;;;;;;5032884;28;20121;-73
2022/02/19 10:40:08;;;;;;;6.57;1.27;;;;;;;;;;5029776;28;20229;-73
2022/02/19 10:42:34;;;;;;;3.67;0.97;;;;;;;;;;5030432;28;20036;-73
2022/02/19 10:45:05;;;;;;;6.77;1.40;;;;;;;;;;5037236;28;20021;-73
2022/02/19 10:47:31;;;;;;;7.22;1.25;;;;;;;;;;5036674;28;20022;-73
2022/02/19 10:50:09;;;;;;;6.43;0.90;;;;;;;;;;5032037;28;20028;-77
2022/02/19 10:52:35;;;;;;;5.70;1.70;;;;;;;;;;5025733;28;20253;-73
2022/02/19 10:55:04;;;;;;;3.57;1.10;;;;;;;;;;5018615;28;20021;-71
2022/02/19 10:57:29;;;;;;;4.70;1.23;;;;;;;;;;5021207;28;20276;-73
2022/02/19 10:59:55;;;;;;;5.63;1.20;;;;;;;;;;5033899;28;20029;-73
2022/02/19 11:02:21;;;;;;;2.97;1.30;;;;;;;;;;5025530;28;20511;-72
2022/02/19 11:04:46;;;;;;;3.53;1.60;;;;;;;;;;5032945;28;20047;-72
2022/02/19 11:07:12;;;;;;;7.83;1.90;;;;;;;;;;5030071;28;20429;-72
2022/02/19 11:09:37;;;;;;;7.40;1.30;;;;;;;;;;5034654;28;20016;-72
2022/02/19 11:12:02;;;;;;;8.80;2.10;;;;;;;;;;5022538;28;20209;-72
2022/02/19 11:14:29;;;;;;;10.83;1.93;;;;;;;;;;5025219;28;20056;-73
2022/02/19 11:16:56;;;;;;;6.67;1.60;;;;;;;;;;5031069;28;20022;-73
2022/02/19 11:19:22;;;;;;;7.17;1.20;;;;;;;;;;5018739;28;20060;-72
2022/02/19 11:21:47;;;;;;;8.93;1.73;;;;;;;;;;5026229;28;20069;-72
2022/02/19 11:24:14;;;;;;;7.27;1.47;;;;;;;;;;5021814;28;20263;-72
2022/02/19 11:26:40;;;;;;;10.17;2.13;;;;;;;;;;5019056;28;20036;-73
2022/02/19 11:29:07;;;;;;;8.10;1.97;;;;;;;;;;5020212;28;20210;-73
2022/02/19 11:31:33;;;;;;;5.50;1.10;;;;;;;;;;5028080;28;20404;-73
2022/02/19 11:34:04;;;;;;;5.63;1.30;;;;;;;;;;5027890;28;20109;-73
2022/02/19 11:36:30;;;;;;;3.23;0.80;;;;;;;;;;5021501;28;20358;-72
2022/02/19 11:38:57;;;;;;;8.00;1.83;;;;;;;;;;5024018;28;20529;-73
2022/02/19 11:41:42;;;;;;;6.70;1.13;;;;;;;;;;5036932;28;20340;-72
2022/02/19 11:44:19;;;;;;;8.93;1.40;;;;;;;;;;5022404;28;20049;-72
2022/02/19 11:46:45;;;;;;;4.57;1.30;;;;;;;;;;5022235;28;20037;-72
2022/02/19 11:49:27;;;;;;;7.90;1.47;;;;;;;;;;5025339;28;20137;-72
2022/02/19 11:51:52;;;;;;;;;;;;;;;;;;5019361;28;20047;-72
2022/02/19 11:54:18;;;;;;;3.50;1.08;;;;;;;;;;5028782;28;19916;-72
2022/02/19 11:56:45;;;;;;;7.87;1.33;;;;;;;;;;5019446;28;20568;-72
2022/02/19 11:59:11;;;;;;;3.10;1.30;;;;;;;;;;5035549;28;20276;-72
2022/02/19 12:01:37;;;;;;;1.93;0.80;;;;;;;;;;5026243;28;20040;-73
2022/02/19 12:04:21;;;;;;;5.93;0.90;;;;;;;;;;5025992;28;20057;-72
2022/02/19 12:07:06;;;;;;;7.10;1.20;;;;;;;;;;5034894;28;20027;-73
2022/02/19 12:09:32;;;;;;;3.97;0.73;;;;;;;;;;5026751;28;20067;-72
2022/02/19 12:12:04;;;;;;;6.40;1.20;;;;;;;;;;5032230;28;20559;-73
2022/02/19 12:14:51;;;;;;;3.13;1.43;;;;;;;;;;5030169;28;20033;-73
2022/02/19 12:17:17;;;;;;;5.43;1.10;;;;;;;;;;5021762;28;20030;-73
2022/02/19 12:19:51;;;;;;;4.33;1.07;;;;;;;;;;5034739;28;20025;-73
2022/02/19 12:22:29;;;;;;;5.13;1.27;;;;;;;;;;5021917;28;20358;-73
2022/02/19 12:24:55;;;;;;;6.70;1.17;;;;;;;;;;5026048;28;20025;-72
2022/02/19 12:27:20;;;;;;;6.57;1.00;;;;;;;;;;5024465;28;20528;-73
2022/02/19 12:29:50;;;;;;;3.07;0.70;;;;;;;;;;5028832;28;20029;-73
2022/02/19 12:32:17;;;;;;;7.43;1.20;;;;;;;;;;5029992;28;20029;-73
2022/02/19 12:34:56;;;;;;;4.50;0.93;;;;;;;;;;5033890;28;20029;-73
2022/02/19 12:37:21;;;;;;;4.93;1.47;;;;;;;;;;5033649;28;20561;-73
2022/02/19 12:39:52;;;;;;;4.07;1.10;;;;;;;;;;5031257;28;20029;-73
2022/02/19 12:42:20;;;;;;;4.77;1.03;;;;;;;;;;5035329;28;20110;-73
2022/02/19 12:44:47;;;;;;;2.90;0.87;;;;;;;;;;5027643;28;20033;-73
2022/02/19 12:47:13;;;;;;;2.80;1.00;;;;;;;;;;5021384;28;20022;-73
2022/02/19 12:49:39;;;;;;;7.77;1.67;;;;;;;;;;5035742;28;20099;-73
2022/02/19 12:52:05;;;;;;;9.07;1.60;;;;;;;;;;5027434;28;20177;-72
2022/02/19 12:54:31;;;;;;;4.00;1.00;;;;;;;;;;5037069;28;20033;-73
2022/02/19 12:56:56;;;;;;;8.50;1.77;;;;;;;;;;5027260;28;20033;-73
2022/02/19 12:59:28;;;;;;;2.77;0.80;;;;;;;;;;5031614;28;20033;-73
2022/02/19 13:01:54;;;;;;;4.00;0.83;;;;;;;;;;5025399;28;20025;-73
2022/02/19 13:04:32;;;;;;;11.13;1.47;;;;;;;;;;5030440;28;20044;-73
2022/02/19 13:06:57;;;;;;;2.40;0.80;;;;;;;;;;5037181;28;20025;-73
2022/02/19 13:09:23;;;;;;;10.20;1.80;;;;;;;;;;5021683;28;20036;-73
2022/02/19 13:11:52;;;;;;;2.03;0.70;;;;;;;;;;5028497;28;20170;-73
2022/02/19 13:14:17;;;;;;;4.30;1.07;;;;;;;;;;5028532;28;20029;-72
2022/02/19 13:16:59;;;;;;;3.07;0.97;;;;;;;;;;5032127;28;20396;-72
2022/02/19 13:19:24;;;;;;;2.85;0.95;;;;;;;;;;5025557;28;20598;-72
2022/02/19 13:21:59;;;;;;;4.43;0.80;;;;;;;;;;5022306;28;20176;-72
2022/02/19 13:24:24;;;;;;;5.13;1.63;;;;;;;;;;5028426;28;20036;-72
2022/02/19 13:26:50;;;;;;;5.13;1.07;;;;;;;;;;5033240;28;20040;-72
2022/02/19 13:29:21;;;;;;;6.73;1.33;;;;;;;;;;5036383;28;20031;-71
2022/02/19 13:31:46;;;;;;;4.50;1.00;;;;;;;;;;5020776;28;20072;-72
2022/02/19 13:34:11;;;;;;;5.70;1.00;;;;;;;;;;5024111;28;20418;-72
2022/02/19 13:36:37;;;;;;;5.07;1.13;;;;;;;;;;5037587;28;20104;-71
2022/02/19 13:39:13;;;;;;;2.77;0.90;;;;;;;;;;5025987;28;20113;-72
2022/02/19 13:41:51;;;;;;;4.67;0.97;;;;;;;;;;5022441;28;20104;-72
2022/02/19 13:44:16;;;;;;;7.03;1.17;;;;;;;;;;5026744;28;20013;-72
2022/02/19 13:46:42;;;;;;;1.60;0.70;;;;;;;;;;5034588;28;20021;-72
2022/02/19 13:49:07;;;;;;;5.07;0.80;;;;;;;;;;5031140;28;20209;-71
2022/02/19 13:51:33;;;;;;;6.83;1.60;;;;;;;;;;5021291;28;20614;-72
2022/02/19 13:54:18;;;;;;;6.53;1.20;;;;;;;;;;5030459;28;20288;-72
2022/02/19 13:56:44;;;;;;;4.77;0.90;;;;;;;;;;5033236;28;20497;-73
2022/02/19 13:59:16;;;;;;;5.77;1.10;;;;;;;;;;5027402;28;20044;-72
2022/02/19 14:01:42;;;;;;;6.43;1.15;;;;;;;;;;5031530;28;20036;-73
2022/02/19 14:04:07;;;;;;;8.23;1.13;;;;;;;;;;5030469;28;20402;-72
2022/02/19 14:06:46;;;;;;;9.00;1.57;;;;;;;;;;5028208;28;20028;-73
2022/02/19 14:09:12;;;;;;;3.87;1.47;;;;;;;;;;5030430;28;20043;-72
2022/02/19 14:11:38;;;;;;;9.20;1.73;;;;;;;;;;5023559;28;20163;-72
2022/02/19 14:14:03;;;;;;;2.30;1.00;;;;;;;;;;5030166;28;20108;-72
2022/02/19 14:16:28;;;;;;;5.77;0.90;;;;;;;;;;5024422;28;20029;-73
2022/02/19 14:19:14;;;;;;;3.87;0.97;;;;;;;;;;5026135;28;20634;-72
2022/02/19 14:21:39;;;;;;;3.27;1.07;;;;;;;;;;5032913;28;20416;-72
2022/02/19 14:24:05;;;;;;;9.93;1.00;;;;;;;;;;5024460;28;20021;-72
2022/02/19 14:26:30;;;;;;;6.00;1.80;;;;;;;;;;5024828;28;20320;-73
2022/02/19 14:28:56;;;;;;;3.13;1.00;;;;;;;;;;5031800;28;20252;-73
2022/02/19 14:31:21;;;;;;;4.90;1.07;;;;;;;;;;5029290;28;20032;-72
2022/02/19 14:33:47;;;;;;;4.50;0.90;;;;;;;;;;5028863;28;20595;-72
2022/02/19 14:36:12;;;;;;;3.33;1.23;;;;;;;;;;5034050;28;20017;-73
2022/02/19 14:38:37;;;;;;;6.07;0.80;;;;;;;;;;5032253;28;20033;-72
2022/02/19 14:41:04;;;;;;;8.77;1.10;;;;;;;;;;5033593;28;20495;-72
2022/02/19 14:43:29;;;;;;;8.10;1.13;;;;;;;;;;5032097;28;20323;-72
2022/02/19 14:45:56;;;;;;;10.20;1.20;;;;;;;;;;5019226;28;20438;-72